Allison, Iowa
Current Conditions -  °F | °C
As of 9:55 PM on Wednesday 17 Dec 2014 (Local Time) from KCCY Reporting Station
Overcast Overcast  
Wind Chill: 19°   Ceiling: 1600
Heat Index: 19°   Visibility: 10mi
Dew Point: 16°   Wind: 0mph
Humidity: 86%   Direction: NA
Pressure: 30.29"   Gusts: NA
Location:  42.75°N, 92.8°W
Report Text: KCCY 180355Z AUTO 00000KT 10SM OVC016 M07/M09 A3029 RMK AO2
Loading
Personal Weather Stations






























Interactive Weather Map New forecast layout! Learn more

10-Day Weather Forecast

Advertisements
Track Severe Weather on mobile